createdAt,value
2016-11-05T00:00:47.482Z,946.5
2016-11-05T00:01:47.501Z,946.54
2016-11-05T00:02:47.524Z,946.53
2016-11-05T00:03:47.539Z,946.46
2016-11-05T00:04:47.560Z,946.44
2016-11-05T00:05:47.575Z,946.47
2016-11-05T00:06:47.593Z,946.43
2016-11-05T00:07:47.611Z,946.46
2016-11-05T00:08:47.629Z,946.39
2016-11-05T00:09:47.648Z,946.42
2016-11-05T00:10:47.666Z,946.37
2016-11-05T00:11:47.685Z,946.35
2016-11-05T00:12:47.702Z,946.36
2016-11-05T00:13:47.721Z,946.36
2016-11-05T00:14:47.740Z,946.29
2016-11-05T00:15:47.757Z,946.32
2016-11-05T00:16:47.775Z,946.29
2016-11-05T00:17:47.793Z,946.26
2016-11-05T00:18:47.810Z,946.24
2016-11-05T00:19:47.838Z,946.19
2016-11-05T00:20:47.848Z,946.24
2016-11-05T00:21:47.867Z,946.23
2016-11-05T00:22:47.884Z,946.22
2016-11-05T00:23:47.903Z,946.2
2016-11-05T00:24:47.921Z,946.22
2016-11-05T00:25:47.939Z,946.22
2016-11-05T00:26:47.963Z,946.19
2016-11-05T00:27:47.976Z,946.21
2016-11-05T00:28:47.993Z,946.2
2016-11-05T00:29:48.011Z,946.19
2016-11-05T00:30:48.030Z,946.14
2016-11-05T00:31:48.048Z,946.14
2016-11-05T00:32:48.065Z,946.13
2016-11-05T00:33:48.084Z,946.17
2016-11-05T00:34:48.119Z,946.13
2016-11-05T00:35:48.121Z,946.11
2016-11-05T00:36:48.139Z,946.18
2016-11-05T00:37:48.160Z,946.14
2016-11-05T00:38:48.176Z,946.13
2016-11-05T00:39:48.195Z,946.04
2016-11-05T00:40:48.213Z,945.99
2016-11-05T00:41:48.244Z,945.99
2016-11-05T00:42:48.249Z,945.93
2016-11-05T00:43:48.269Z,945.95
2016-11-05T00:44:48.285Z,945.96
2016-11-05T00:45:48.304Z,945.91
2016-11-05T00:46:48.322Z,945.91
2016-11-05T00:47:48.340Z,945.93
2016-11-05T00:48:48.367Z,945.98
2016-11-05T00:49:48.377Z,945.94
2016-11-05T00:50:48.398Z,945.98
2016-11-05T00:51:48.415Z,946.03
2016-11-05T00:52:48.432Z,945.94
2016-11-05T00:53:48.450Z,946
2016-11-05T00:54:48.470Z,945.96
2016-11-05T00:55:48.486Z,945.92
2016-11-05T00:56:48.526Z,945.98
2016-11-05T00:57:48.524Z,945.98
2016-11-05T00:58:48.543Z,945.95
2016-11-05T00:59:48.561Z,945.95
2016-11-05T01:00:48.578Z,945.96
2016-11-05T01:01:48.599Z,945.95
2016-11-05T01:02:48.622Z,946.01
2016-11-05T01:03:48.634Z,946.01
2016-11-05T01:04:48.653Z,946.03
2016-11-05T01:05:48.671Z,945.97
2016-11-05T01:06:48.688Z,945.99
2016-11-05T01:07:48.707Z,945.94
2016-11-05T01:08:48.726Z,945.89
2016-11-05T01:09:48.745Z,945.91
2016-11-05T01:10:48.763Z,945.9
2016-11-05T01:11:48.781Z,945.86
2016-11-05T01:12:48.799Z,945.83
2016-11-05T01:13:48.820Z,945.82
2016-11-05T01:14:48.837Z,945.77
2016-11-05T01:15:48.859Z,945.78
2016-11-05T01:16:48.874Z,945.77
2016-11-05T01:17:48.893Z,945.72
2016-11-05T01:18:48.911Z,945.67
2016-11-05T01:19:48.940Z,945.62
2016-11-05T01:20:48.953Z,945.64
2016-11-05T01:21:48.966Z,945.57
2016-11-05T01:22:48.986Z,945.57
2016-11-05T01:23:49.006Z,945.53
2016-11-05T01:24:49.024Z,945.55
2016-11-05T01:25:49.042Z,945.53
2016-11-05T01:26:49.060Z,945.53
2016-11-05T01:27:49.081Z,945.44
2016-11-05T01:28:49.100Z,945.49
2016-11-05T01:29:49.118Z,945.46
2016-11-05T01:30:49.138Z,945.35
2016-11-05T01:31:49.155Z,945.39
2016-11-05T01:32:49.174Z,945.35
2016-11-05T01:33:49.195Z,945.39
2016-11-05T01:34:49.212Z,945.35
2016-11-05T01:35:49.229Z,945.3
2016-11-05T01:36:49.249Z,945.27
2016-11-05T01:37:49.273Z,945.28
2016-11-05T01:38:49.287Z,945.31
2016-11-05T01:39:49.305Z,945.3
2016-11-05T01:40:49.325Z,945.36
2016-11-05T01:41:49.345Z,945.35
2016-11-05T01:42:49.361Z,945.3
2016-11-05T01:43:49.381Z,945.33
2016-11-05T01:44:49.399Z,945.33
2016-11-05T01:45:49.419Z,945.33
2016-11-05T01:46:49.436Z,945.27
2016-11-05T01:47:49.456Z,945.31
2016-11-05T01:48:49.475Z,945.33
2016-11-05T01:49:49.494Z,945.33
2016-11-05T01:50:49.515Z,945.23
2016-11-05T01:51:49.531Z,945.19
2016-11-05T01:52:49.552Z,945.25
2016-11-05T01:53:49.571Z,945.24
2016-11-05T01:54:49.587Z,945.22
2016-11-05T01:55:49.606Z,945.19
2016-11-05T01:56:49.625Z,945.15
2016-11-05T01:57:49.646Z,945.21
2016-11-05T01:58:49.663Z,945.21
2016-11-05T01:59:49.682Z,945.16
2016-11-05T02:00:49.702Z,945.19
2016-11-05T02:01:49.720Z,945.21
2016-11-05T02:02:49.741Z,945.16
2016-11-05T02:03:49.758Z,945.18
2016-11-05T02:04:49.776Z,945.11
2016-11-05T02:05:49.794Z,945.12
2016-11-05T02:06:49.816Z,945.1
2016-11-05T02:07:49.833Z,945.12
2016-11-05T02:08:49.851Z,945.1
2016-11-05T02:09:49.870Z,945.07
2016-11-05T02:10:49.889Z,945.07
2016-11-05T02:11:49.913Z,945.1
2016-11-05T02:12:49.928Z,945.1
2016-11-05T02:13:49.946Z,945.07
2016-11-05T02:14:49.967Z,945.1
2016-11-05T02:15:49.983Z,945.07
2016-11-05T02:16:50.007Z,945.08
2016-11-05T02:17:50.022Z,945.06
2016-11-05T02:18:50.041Z,945.03
2016-11-05T02:19:50.061Z,945.04
2016-11-05T02:20:50.079Z,945.06
2016-11-05T02:21:50.097Z,945.09
2016-11-05T02:22:50.123Z,945.03
2016-11-05T02:23:50.136Z,945.07
2016-11-05T02:24:50.154Z,945.02
2016-11-05T02:25:50.173Z,945.07
2016-11-05T02:26:50.216Z,945.08
2016-11-05T02:27:50.210Z,945.09
2016-11-05T02:28:50.230Z,945.05
2016-11-05T02:29:50.263Z,945.01
2016-11-05T02:30:50.267Z,945.08
2016-11-05T02:31:50.286Z,945.03
2016-11-05T02:32:50.307Z,945.09
2016-11-05T02:33:50.324Z,945.02
2016-11-05T02:34:50.347Z,945.05
2016-11-05T02:35:50.363Z,945
2016-11-05T02:36:50.381Z,945.03
2016-11-05T02:37:50.400Z,945.01
2016-11-05T02:38:50.421Z,944.99
2016-11-05T02:39:50.439Z,944.99
2016-11-05T02:40:50.457Z,945
2016-11-05T02:41:50.496Z,944.99
2016-11-05T02:42:50.495Z,944.96
2016-11-05T02:43:50.514Z,944.93
2016-11-05T02:44:50.540Z,944.92
2016-11-05T02:45:50.552Z,944.92
2016-11-05T02:46:50.571Z,944.92
2016-11-05T02:47:50.591Z,944.91
2016-11-05T02:48:50.609Z,944.94
2016-11-05T02:49:50.651Z,944.93
2016-11-05T02:50:50.648Z,944.85
2016-11-05T02:51:50.667Z,944.88
2016-11-05T02:52:50.688Z,944.87
2016-11-05T02:53:50.705Z,944.9
2016-11-05T02:54:50.726Z,944.81
2016-11-05T02:55:50.744Z,944.8
2016-11-05T02:56:50.775Z,944.8
2016-11-05T02:57:50.781Z,944.77
2016-11-05T02:58:50.801Z,944.76
2016-11-05T02:59:50.820Z,944.76
2016-11-05T03:00:50.839Z,944.75
2016-11-05T03:01:50.858Z,944.73
2016-11-05T03:02:50.880Z,944.77
2016-11-05T03:03:50.902Z,944.77
2016-11-05T03:04:50.932Z,944.81
2016-11-05T03:05:50.933Z,944.78
2016-11-05T03:06:50.953Z,944.8
2016-11-05T03:07:51.115Z,944.76
2016-11-05T03:08:51.000Z,944.75
2016-11-05T03:09:51.165Z,944.77
2016-11-05T03:10:51.049Z,944.73
2016-11-05T03:11:51.186Z,944.75
2016-11-05T03:12:51.069Z,944.73
2016-11-05T03:13:51.089Z,944.71
2016-11-05T03:14:51.109Z,944.75
2016-11-05T03:15:51.127Z,944.8
2016-11-05T03:16:51.147Z,944.78
2016-11-05T03:17:51.215Z,944.77
2016-11-05T03:18:51.187Z,944.78
2016-11-05T03:19:51.319Z,944.76
2016-11-05T03:20:51.222Z,944.69
2016-11-05T03:21:51.242Z,944.63
2016-11-05T03:22:51.263Z,944.63
2016-11-05T03:23:51.281Z,944.6
2016-11-05T03:24:51.301Z,944.6
2016-11-05T03:25:51.320Z,944.57
2016-11-05T03:26:51.340Z,944.58
2016-11-05T03:27:51.358Z,944.58
2016-11-05T03:28:51.376Z,944.6
2016-11-05T03:29:51.396Z,944.56
2016-11-05T03:30:51.416Z,944.54
2016-11-05T03:31:51.434Z,944.5
2016-11-05T03:32:51.454Z,944.49
2016-11-05T03:33:51.474Z,944.48
2016-11-05T03:34:51.496Z,944.44
2016-11-05T03:35:51.513Z,944.43
2016-11-05T03:36:51.531Z,944.43
2016-11-05T03:37:51.551Z,944.46
2016-11-05T03:38:51.573Z,944.43
2016-11-05T03:39:51.590Z,944.39
2016-11-05T03:40:51.609Z,944.41
2016-11-05T03:41:51.628Z,944.42
2016-11-05T03:42:51.648Z,944.41
2016-11-05T03:43:51.665Z,944.39
2016-11-05T03:44:51.684Z,944.39
2016-11-05T03:45:51.706Z,944.37
2016-11-05T03:46:51.726Z,944.36
2016-11-05T03:47:51.744Z,944.31
2016-11-05T03:48:51.765Z,944.34
2016-11-05T03:49:51.784Z,944.35
2016-11-05T03:50:51.807Z,944.35
2016-11-05T03:51:51.821Z,944.34
2016-11-05T03:52:51.841Z,944.32
2016-11-05T03:53:51.864Z,944.31
2016-11-05T03:54:51.879Z,944.31
2016-11-05T03:55:51.905Z,944.3
2016-11-05T03:56:51.921Z,944.32
2016-11-05T03:57:51.938Z,944.32
2016-11-05T03:58:51.957Z,944.33
2016-11-05T03:59:51.977Z,944.31
2016-11-05T04:00:51.996Z,944.32
2016-11-05T04:01:52.016Z,944.31
2016-11-05T04:02:52.035Z,944.3
2016-11-05T04:03:52.054Z,944.3
2016-11-05T04:04:52.074Z,944.27
2016-11-05T04:05:52.092Z,944.26
2016-11-05T04:06:52.112Z,944.24
2016-11-05T04:07:52.131Z,944.23
2016-11-05T04:08:52.152Z,944.26
2016-11-05T04:09:52.169Z,944.24
2016-11-05T04:10:52.189Z,944.19
2016-11-05T04:11:52.209Z,944.27
2016-11-05T04:12:52.228Z,944.21
2016-11-05T04:13:52.246Z,944.16
2016-11-05T04:14:52.266Z,944.17
2016-11-05T04:15:52.286Z,944.17
2016-11-05T04:16:52.311Z,944.16
2016-11-05T04:17:52.323Z,944.2
2016-11-05T04:18:52.343Z,944.18
2016-11-05T04:19:52.362Z,944.18
2016-11-05T04:20:52.381Z,944.2
2016-11-05T04:21:52.401Z,944.18
2016-11-05T04:22:52.419Z,944.19
2016-11-05T04:23:52.439Z,944.2
2016-11-05T04:24:52.459Z,944.17
2016-11-05T04:25:52.578Z,944.18
2016-11-05T04:26:52.497Z,944.17
2016-11-05T04:27:52.516Z,944.14
2016-11-05T04:28:52.535Z,944.13
2016-11-05T04:29:52.557Z,944.1
2016-11-05T04:30:52.576Z,944.08
2016-11-05T04:31:52.593Z,944.1
2016-11-05T04:32:52.611Z,944.09
2016-11-05T04:33:52.633Z,944.04
2016-11-05T04:34:52.658Z,944.03
2016-11-05T04:35:52.670Z,944.08
2016-11-05T04:36:52.690Z,944.04
2016-11-05T04:37:52.710Z,943.96
2016-11-05T04:38:52.728Z,943.99
2016-11-05T04:39:52.747Z,943.95
2016-11-05T04:40:52.773Z,943.98
2016-11-05T04:41:52.786Z,943.95
2016-11-05T04:42:52.806Z,943.97
2016-11-05T04:43:52.827Z,943.95
2016-11-05T04:44:52.845Z,943.95
2016-11-05T04:45:52.864Z,943.98
2016-11-05T04:46:52.884Z,943.95
2016-11-05T04:47:52.904Z,943.92
2016-11-05T04:48:52.924Z,943.93
2016-11-05T04:49:52.965Z,943.91
2016-11-05T04:50:52.962Z,943.89
2016-11-05T04:51:52.983Z,943.86
2016-11-05T04:52:53.001Z,943.88
2016-11-05T04:53:53.020Z,943.87
2016-11-05T04:54:53.039Z,943.83
2016-11-05T04:55:53.060Z,943.85
2016-11-05T04:56:53.078Z,943.86
2016-11-05T04:57:53.098Z,943.84
2016-11-05T04:58:53.117Z,943.89
2016-11-05T04:59:53.136Z,943.89
2016-11-05T05:00:53.157Z,943.9
2016-11-05T05:01:53.176Z,943.89
2016-11-05T05:02:53.196Z,943.89
2016-11-05T05:03:53.213Z,943.87
2016-11-05T05:04:53.245Z,943.87
2016-11-05T05:05:53.253Z,943.79
2016-11-05T05:06:53.273Z,943.81
2016-11-05T05:07:53.291Z,943.81
2016-11-05T05:08:53.311Z,943.8
2016-11-05T05:09:53.331Z,943.78
2016-11-05T05:10:53.350Z,943.77
2016-11-05T05:11:53.369Z,943.78
2016-11-05T05:12:53.403Z,943.8
2016-11-05T05:13:53.409Z,943.78
2016-11-05T05:14:53.427Z,943.79
2016-11-05T05:15:53.446Z,943.74
2016-11-05T05:16:53.466Z,943.76
2016-11-05T05:17:53.485Z,943.75
2016-11-05T05:18:53.504Z,943.8
2016-11-05T05:19:53.527Z,943.76
2016-11-05T05:20:53.544Z,943.81
2016-11-05T05:21:53.562Z,943.84
2016-11-05T05:22:53.583Z,943.83
2016-11-05T05:23:53.603Z,943.82
2016-11-05T05:24:53.623Z,943.81
2016-11-05T05:25:53.640Z,943.8
2016-11-05T05:26:53.660Z,943.79
2016-11-05T05:27:53.684Z,943.79
2016-11-05T05:28:53.699Z,943.79
2016-11-05T05:29:53.717Z,943.76
2016-11-05T05:30:53.736Z,943.78
2016-11-05T05:31:53.757Z,943.73
2016-11-05T05:32:53.775Z,943.73
2016-11-05T05:33:53.797Z,943.74
2016-11-05T05:34:53.814Z,943.71
2016-11-05T05:35:53.834Z,943.76
2016-11-05T05:36:53.852Z,943.75
2016-11-05T05:37:53.873Z,943.72
2016-11-05T05:38:53.893Z,943.7
2016-11-05T05:39:53.911Z,943.66
2016-11-05T05:40:53.929Z,943.7
2016-11-05T05:41:54.007Z,943.62
2016-11-05T05:42:53.969Z,943.62
2016-11-05T05:43:53.987Z,943.64
2016-11-05T05:44:54.009Z,943.64
2016-11-05T05:45:54.026Z,943.6
2016-11-05T05:46:54.046Z,943.57
2016-11-05T05:47:54.065Z,943.54
2016-11-05T05:48:54.083Z,943.54
2016-11-05T05:49:54.103Z,943.6
2016-11-05T05:50:54.121Z,943.59
2016-11-05T05:51:54.141Z,943.61
2016-11-05T05:52:54.160Z,943.55
2016-11-05T05:53:54.181Z,943.55
2016-11-05T05:54:54.198Z,943.49
2016-11-05T05:55:54.268Z,943.48
2016-11-05T05:56:54.238Z,943.45
2016-11-05T05:57:54.261Z,943.46
2016-11-05T05:58:54.274Z,943.45
2016-11-05T05:59:54.295Z,943.44
2016-11-05T06:00:54.315Z,943.39
2016-11-05T06:01:54.335Z,943.33
2016-11-05T06:02:54.353Z,943.28
2016-11-05T06:03:54.372Z,943.28
2016-11-05T06:04:54.392Z,943.22
2016-11-05T06:05:54.409Z,943.24
2016-11-05T06:06:54.429Z,943.23
2016-11-05T06:07:54.453Z,943.24
2016-11-05T06:08:54.469Z,943.23
2016-11-05T06:09:54.488Z,943.13
2016-11-05T06:10:54.507Z,943.06
2016-11-05T06:11:54.528Z,943
2016-11-05T06:12:54.547Z,942.91
2016-11-05T06:13:54.565Z,942.85
2016-11-05T06:14:54.586Z,942.83
2016-11-05T06:15:54.604Z,942.84
2016-11-05T06:16:54.622Z,942.81
2016-11-05T06:17:54.642Z,942.81
2016-11-05T06:18:54.662Z,942.8
2016-11-05T06:19:54.681Z,942.85
2016-11-05T06:20:54.700Z,942.85
2016-11-05T06:21:54.722Z,942.86
2016-11-05T06:22:54.740Z,942.85
2016-11-05T06:23:54.761Z,942.87
2016-11-05T06:24:54.777Z,942.85
2016-11-05T06:25:54.797Z,942.84
2016-11-05T06:26:54.816Z,942.88
2016-11-05T06:27:54.835Z,942.91
2016-11-05T06:28:54.854Z,942.92
2016-11-05T06:29:54.878Z,942.93
2016-11-05T06:30:54.893Z,942.94
2016-11-05T06:31:54.912Z,942.93
2016-11-05T06:32:54.932Z,942.9
2016-11-05T06:33:54.958Z,942.91
2016-11-05T06:34:54.969Z,942.82
2016-11-05T06:35:54.989Z,942.9
2016-11-05T06:36:55.008Z,942.83
2016-11-05T06:37:55.027Z,942.85
2016-11-05T06:38:55.046Z,942.9
2016-11-05T06:39:55.065Z,942.89
2016-11-05T06:40:55.084Z,942.87
2016-11-05T06:41:55.103Z,942.84
2016-11-05T06:42:55.122Z,942.8
2016-11-05T06:43:55.141Z,942.74
2016-11-05T06:44:55.162Z,942.79
2016-11-05T06:45:55.180Z,942.76
2016-11-05T06:46:55.198Z,942.74
2016-11-05T06:47:55.219Z,942.73
2016-11-05T06:48:55.237Z,942.65
2016-11-05T06:49:55.256Z,942.62
2016-11-05T06:50:55.324Z,942.61
2016-11-05T06:51:55.294Z,942.58
2016-11-05T06:52:55.312Z,942.61
2016-11-05T06:53:55.331Z,942.59
2016-11-05T06:54:55.350Z,942.58
2016-11-05T06:55:55.369Z,942.58
2016-11-05T06:56:55.388Z,942.59
2016-11-05T06:57:55.431Z,942.57
2016-11-05T06:58:55.426Z,942.61
2016-11-05T06:59:55.448Z,942.62
2016-11-05T07:00:55.466Z,942.62
2016-11-05T07:01:55.484Z,942.62
2016-11-05T07:02:55.504Z,942.62
2016-11-05T07:03:55.523Z,942.63
2016-11-05T07:04:55.540Z,942.6
2016-11-05T07:05:55.562Z,942.6
2016-11-05T07:06:55.580Z,942.61
2016-11-05T07:07:55.598Z,942.56
2016-11-05T07:08:55.618Z,942.57
2016-11-05T07:09:55.638Z,942.56
2016-11-05T07:10:55.656Z,942.53
2016-11-05T07:11:55.675Z,942.6
2016-11-05T07:12:55.710Z,942.62
2016-11-05T07:13:55.715Z,942.63
2016-11-05T07:14:55.734Z,942.62
2016-11-05T07:15:55.751Z,942.6
2016-11-05T07:16:55.771Z,942.58
2016-11-05T07:17:55.791Z,942.56
2016-11-05T07:18:55.808Z,942.57
2016-11-05T07:19:55.828Z,942.57
2016-11-05T07:20:55.868Z,942.57
2016-11-05T07:21:55.867Z,942.62
2016-11-05T07:22:55.885Z,942.6
2016-11-05T07:23:55.905Z,942.55
2016-11-05T07:24:55.925Z,942.57
2016-11-05T07:25:55.944Z,942.56
2016-11-05T07:26:55.961Z,942.58
2016-11-05T07:27:55.992Z,942.5
2016-11-05T07:28:56.001Z,942.51
2016-11-05T07:29:56.019Z,942.54
2016-11-05T07:30:56.039Z,942.52
2016-11-05T07:31:56.058Z,942.52
2016-11-05T07:32:56.076Z,942.53
2016-11-05T07:33:56.096Z,942.56
2016-11-05T07:34:56.115Z,942.55
2016-11-05T07:35:56.148Z,942.5
2016-11-05T07:36:56.156Z,942.47
2016-11-05T07:37:56.173Z,942.48
2016-11-05T07:38:56.193Z,942.47
2016-11-05T07:39:56.213Z,942.43
2016-11-05T07:40:56.231Z,942.38
2016-11-05T07:41:56.250Z,942.32
2016-11-05T07:42:56.275Z,942.36
2016-11-05T07:43:56.290Z,942.3
2016-11-05T07:44:56.308Z,942.25
2016-11-05T07:45:56.328Z,942.22
2016-11-05T07:46:56.348Z,942.21
2016-11-05T07:47:56.367Z,942.17
2016-11-05T07:48:56.386Z,942.12
2016-11-05T07:49:56.406Z,942.16
2016-11-05T07:50:56.431Z,942.12
2016-11-05T07:51:56.444Z,942.14
2016-11-05T07:52:56.463Z,942.1
2016-11-05T07:53:56.484Z,942.08
2016-11-05T07:54:56.504Z,942.02
2016-11-05T07:55:56.523Z,942.03
2016-11-05T07:56:56.543Z,942.02
2016-11-05T07:57:56.603Z,942.03
2016-11-05T07:58:56.582Z,942.06
2016-11-05T07:59:56.600Z,942.03
2016-11-05T08:00:56.619Z,942.11
2016-11-05T08:01:56.642Z,942.09
2016-11-05T08:02:56.659Z,942.06
2016-11-05T08:03:56.681Z,942.09
2016-11-05T08:04:56.700Z,942.07
2016-11-05T08:05:56.721Z,942.05
2016-11-05T08:06:56.737Z,942.04
2016-11-05T08:07:56.758Z,942.03
2016-11-05T08:08:56.778Z,942.01
2016-11-05T08:09:56.799Z,941.98
2016-11-05T08:10:56.820Z,941.93
2016-11-05T08:11:56.837Z,941.94
2016-11-05T08:12:56.857Z,941.85
2016-11-05T08:13:56.876Z,941.82
2016-11-05T08:14:56.897Z,941.76
2016-11-05T08:15:56.917Z,941.7
2016-11-05T08:16:56.938Z,941.7
2016-11-05T08:17:56.956Z,941.63
2016-11-05T08:18:56.976Z,941.57
2016-11-05T08:19:56.996Z,941.56
2016-11-05T08:20:57.016Z,941.5
2016-11-05T08:21:57.037Z,941.48
2016-11-05T08:22:57.056Z,941.41
2016-11-05T08:23:57.076Z,941.36
2016-11-05T08:24:57.096Z,941.4
2016-11-05T08:25:57.117Z,941.33
2016-11-05T08:26:57.138Z,941.29
2016-11-05T08:27:57.157Z,941.23
2016-11-05T08:28:57.176Z,941.25
2016-11-05T08:29:57.196Z,941.2
2016-11-05T08:30:57.217Z,941.18
2016-11-05T08:31:57.236Z,941.19
2016-11-05T08:32:57.258Z,941.12
2016-11-05T08:33:57.278Z,941.07
2016-11-05T08:34:57.298Z,941.02
2016-11-05T08:35:57.336Z,941.03
2016-11-05T08:36:57.339Z,941
2016-11-05T08:37:57.360Z,940.94
2016-11-05T08:38:57.381Z,940.96
2016-11-05T08:39:57.399Z,940.97
2016-11-05T08:40:57.421Z,940.94
2016-11-05T08:41:57.441Z,940.93
2016-11-05T08:42:57.460Z,940.91
2016-11-05T08:43:57.493Z,940.94
2016-11-05T08:44:57.502Z,940.91
2016-11-05T08:45:57.521Z,940.91
2016-11-05T08:46:57.540Z,940.91
2016-11-05T08:47:57.561Z,940.97
2016-11-05T08:48:57.582Z,941
2016-11-05T08:49:57.602Z,941.08
2016-11-05T08:50:57.623Z,941.1
2016-11-05T08:51:57.643Z,941.13
2016-11-05T08:52:57.663Z,941.17
2016-11-05T08:53:57.683Z,941.21
2016-11-05T08:54:57.704Z,941.2
2016-11-05T08:55:57.724Z,941.17
2016-11-05T08:56:57.744Z,941.15
2016-11-05T08:57:57.764Z,941.13
2016-11-05T08:58:57.789Z,941.1
2016-11-05T08:59:57.806Z,941.01
2016-11-05T09:00:57.827Z,941.01
2016-11-05T09:01:57.846Z,940.97
2016-11-05T09:02:57.866Z,940.97
2016-11-05T09:03:57.886Z,940.96
2016-11-05T09:04:57.908Z,940.99
2016-11-05T09:05:57.927Z,940.94
2016-11-05T09:06:57.948Z,940.9
2016-11-05T09:07:57.968Z,940.84
2016-11-05T09:08:57.989Z,940.84
2016-11-05T09:09:58.008Z,940.79
2016-11-05T09:10:58.030Z,940.78
2016-11-05T09:11:58.050Z,940.74
2016-11-05T09:12:58.069Z,940.72
2016-11-05T09:13:58.090Z,940.71
2016-11-05T09:14:58.111Z,940.74
2016-11-05T09:15:58.132Z,940.81
2016-11-05T09:16:58.151Z,940.77
2016-11-05T09:17:58.172Z,940.74
2016-11-05T09:18:58.195Z,940.72
2016-11-05T09:19:58.215Z,940.7
2016-11-05T09:20:58.234Z,940.7
2016-11-05T09:21:58.274Z,940.69
2016-11-05T09:22:58.275Z,940.65
2016-11-05T09:23:58.296Z,940.69
2016-11-05T09:24:58.316Z,940.74
2016-11-05T09:25:58.336Z,940.8
2016-11-05T09:26:58.357Z,940.75
2016-11-05T09:27:58.378Z,940.7
2016-11-05T09:28:58.398Z,940.7
2016-11-05T09:29:58.419Z,940.67
2016-11-05T09:30:58.439Z,940.7
2016-11-05T09:31:58.460Z,940.69
2016-11-05T09:32:58.481Z,940.71
2016-11-05T09:33:58.500Z,940.7
2016-11-05T09:34:58.521Z,940.63
2016-11-05T09:35:58.543Z,940.59
2016-11-05T09:36:58.568Z,940.55
2016-11-05T09:37:58.584Z,940.51
2016-11-05T09:38:58.605Z,940.46
2016-11-05T09:39:58.624Z,940.5
2016-11-05T09:40:58.646Z,940.52
2016-11-05T09:41:58.666Z,940.5
2016-11-05T09:42:58.688Z,940.48
2016-11-05T09:43:58.708Z,940.42
2016-11-05T09:44:58.730Z,940.41
2016-11-05T09:45:58.750Z,940.37
2016-11-05T09:46:58.771Z,940.37
2016-11-05T09:47:58.793Z,940.36
2016-11-05T09:48:58.812Z,940.36
2016-11-05T09:49:58.834Z,940.34
2016-11-05T09:50:58.853Z,940.33
2016-11-05T09:51:58.898Z,940.29
2016-11-05T09:52:58.898Z,940.28
2016-11-05T09:53:58.917Z,940.27
2016-11-05T09:54:58.939Z,940.27
2016-11-05T09:55:58.963Z,940.27
2016-11-05T09:56:58.980Z,940.18
2016-11-05T09:57:59.002Z,940.17
2016-11-05T09:58:59.024Z,940.18
2016-11-05T09:59:59.056Z,940.14
2016-11-05T10:00:59.068Z,940.11
2016-11-05T10:01:59.086Z,940.07
2016-11-05T10:02:59.109Z,940.09
2016-11-05T10:03:59.129Z,940.02
2016-11-05T10:04:59.151Z,940.04
2016-11-05T10:05:59.172Z,940
2016-11-05T10:06:59.194Z,939.99
2016-11-05T10:07:59.216Z,939.97
2016-11-05T10:08:59.237Z,939.92
2016-11-05T10:09:59.257Z,939.91
2016-11-05T10:10:59.280Z,939.9
2016-11-05T10:11:59.300Z,939.87
2016-11-05T10:12:59.322Z,939.84
2016-11-05T10:13:59.343Z,939.8
2016-11-05T10:14:59.365Z,939.8
2016-11-05T10:15:59.384Z,939.77
2016-11-05T10:16:59.407Z,939.74
2016-11-05T10:17:59.428Z,939.79
2016-11-05T10:18:59.449Z,939.75
2016-11-05T10:19:59.471Z,939.67
2016-11-05T10:20:59.493Z,939.62
2016-11-05T10:21:59.513Z,939.61
2016-11-05T10:22:59.555Z,939.56
2016-11-05T10:23:59.556Z,939.53
2016-11-05T10:24:59.576Z,939.51
2016-11-05T10:25:59.600Z,939.48
2016-11-05T10:26:59.620Z,939.49
2016-11-05T10:27:59.641Z,939.45
2016-11-05T10:28:59.661Z,939.39
2016-11-05T10:29:59.685Z,939.37
2016-11-05T10:30:59.705Z,939.34
2016-11-05T10:31:59.725Z,939.33
2016-11-05T10:32:59.746Z,939.34
2016-11-05T10:33:59.769Z,939.38
2016-11-05T10:34:59.790Z,939.37
2016-11-05T10:35:59.813Z,939.34
2016-11-05T10:36:59.834Z,939.28
2016-11-05T10:37:59.854Z,939.24
2016-11-05T10:38:59.875Z,939.3
2016-11-05T10:39:59.896Z,939.2
2016-11-05T10:40:59.918Z,939.2
2016-11-05T10:41:59.941Z,939.22
2016-11-05T10:42:59.961Z,939.17
2016-11-05T10:43:59.981Z,939.12
2016-11-05T10:45:00.003Z,939.05
2016-11-05T10:46:00.026Z,939.06
2016-11-05T10:47:00.047Z,939.05
2016-11-05T10:48:00.067Z,939.08
2016-11-05T10:49:00.089Z,938.98
2016-11-05T10:50:00.110Z,938.97
2016-11-05T10:51:00.130Z,938.99
2016-11-05T10:52:00.152Z,938.95
2016-11-05T10:53:00.178Z,938.91
2016-11-05T10:54:00.195Z,938.89
2016-11-05T10:55:00.214Z,938.93
2016-11-05T10:56:00.238Z,938.9
2016-11-05T10:57:00.259Z,938.85
2016-11-05T10:58:00.280Z,938.81
2016-11-05T10:59:00.301Z,938.77
2016-11-05T11:00:00.323Z,938.69
2016-11-05T11:01:00.349Z,938.66
2016-11-05T11:02:00.365Z,938.6
2016-11-05T11:03:00.387Z,938.55
2016-11-05T11:04:00.407Z,938.51
2016-11-05T11:05:00.430Z,938.53
2016-11-05T11:06:00.451Z,938.53
2016-11-05T11:07:00.474Z,938.48
2016-11-05T11:08:00.494Z,938.51
2016-11-05T11:09:00.516Z,938.44
2016-11-05T11:10:00.537Z,938.42
2016-11-05T11:11:00.559Z,938.42
2016-11-05T11:12:00.580Z,938.37
2016-11-05T11:13:00.602Z,938.42
2016-11-05T11:14:00.624Z,938.41
2016-11-05T11:15:00.645Z,938.41
2016-11-05T11:16:00.676Z,938.41
2016-11-05T11:17:00.688Z,938.4
2016-11-05T11:18:00.709Z,938.39
2016-11-05T11:19:00.733Z,938.4
2016-11-05T11:20:00.755Z,938.38
2016-11-05T11:21:00.774Z,938.37
2016-11-05T11:22:00.797Z,938.39
2016-11-05T11:23:00.818Z,938.4
2016-11-05T11:24:00.840Z,938.44
2016-11-05T11:25:00.862Z,938.38
2016-11-05T11:26:00.884Z,938.36
2016-11-05T11:27:00.905Z,938.36
2016-11-05T11:28:00.926Z,938.33
2016-11-05T11:29:00.948Z,938.29
2016-11-05T11:30:00.971Z,938.33
2016-11-05T11:31:00.993Z,938.33
2016-11-05T11:32:01.015Z,938.31
2016-11-05T11:33:01.036Z,938.31
2016-11-05T11:34:01.057Z,938.3
2016-11-05T11:35:01.079Z,938.3
2016-11-05T11:36:01.101Z,938.26
2016-11-05T11:37:01.123Z,938.22
2016-11-05T11:38:01.145Z,938.12
2016-11-05T11:39:01.173Z,938.13
2016-11-05T11:40:01.188Z,938.12
2016-11-05T11:41:01.211Z,938.11
2016-11-05T11:42:01.232Z,938.18
2016-11-05T11:43:01.254Z,938.06
2016-11-05T11:44:01.275Z,938.11
2016-11-05T11:45:01.298Z,938.13
2016-11-05T11:46:01.318Z,938.06
2016-11-05T11:47:01.348Z,938.02
2016-11-05T11:48:01.364Z,937.98
2016-11-05T11:49:01.385Z,938.01
2016-11-05T11:50:01.407Z,938.03
2016-11-05T11:51:01.428Z,938.02
2016-11-05T11:52:01.452Z,937.99
2016-11-05T11:53:01.472Z,937.97
2016-11-05T11:54:01.494Z,937.89
2016-11-05T11:55:01.516Z,937.9
2016-11-05T11:56:01.539Z,937.88
2016-11-05T11:57:01.559Z,937.88
2016-11-05T11:58:01.584Z,937.83
2016-11-05T11:59:01.604Z,937.86
2016-11-05T12:00:01.626Z,937.89
2016-11-05T12:01:01.647Z,937.9
2016-11-05T12:02:01.674Z,937.8
2016-11-05T12:03:01.691Z,937.83
2016-11-05T12:04:01.712Z,937.88
2016-11-05T12:05:01.734Z,937.89
2016-11-05T12:06:01.756Z,937.84
2016-11-05T12:07:01.778Z,937.81
2016-11-05T12:08:01.800Z,937.73
2016-11-05T12:09:01.822Z,937.67
2016-11-05T12:10:01.845Z,937.6
2016-11-05T12:11:01.867Z,937.61
2016-11-05T12:12:01.889Z,937.77
2016-11-05T12:13:01.910Z,937.87
2016-11-05T12:14:01.931Z,937.91
2016-11-05T12:15:01.955Z,937.9
2016-11-05T12:16:01.977Z,937.88
2016-11-05T12:17:01.997Z,937.93
2016-11-05T12:18:02.019Z,937.99
2016-11-05T12:19:02.038Z,937.87
2016-11-05T12:20:02.063Z,937.82
2016-11-05T12:21:02.084Z,937.81
2016-11-05T12:22:02.107Z,937.97
2016-11-05T12:23:02.127Z,938.07
2016-11-05T12:24:02.149Z,938
2016-11-05T12:25:02.171Z,937.88
2016-11-05T12:26:02.192Z,937.78
2016-11-05T12:27:02.214Z,937.71
2016-11-05T12:28:02.236Z,937.64
2016-11-05T12:29:02.258Z,937.53
2016-11-05T12:30:02.279Z,937.47
2016-11-05T12:31:02.301Z,937.49
2016-11-05T12:32:02.323Z,937.51
2016-11-05T12:33:02.346Z,937.53